createdAt,value
2023-04-12T00:04:04.832Z,944
2023-04-12T00:09:34.167Z,943
2023-04-12T00:15:06.183Z,913
2023-04-12T00:20:35.231Z,887
2023-04-12T00:26:05.754Z,878
2023-04-12T00:31:36.245Z,872
2023-04-12T00:37:05.707Z,877
2023-04-12T00:42:36.223Z,899
2023-04-12T00:48:06.794Z,950
2023-04-12T00:53:37.283Z,896
2023-04-12T00:59:07.760Z,898
2023-04-12T01:04:38.496Z,921
2023-04-12T01:10:08.953Z,925
2023-04-12T01:15:38.454Z,901
2023-04-12T01:21:08.919Z,886
2023-04-12T01:26:39.380Z,885
2023-04-12T01:32:09.972Z,881
2023-04-12T01:37:40.442Z,892
2023-04-12T01:43:10.897Z,880
2023-04-12T01:48:41.504Z,891
2023-04-12T01:54:11.984Z,876
2023-04-12T01:59:42.460Z,878
2023-04-12T02:05:13.059Z,866
2023-04-12T02:10:43.522Z,878
2023-04-12T02:16:13.130Z,870
2023-04-12T02:21:43.603Z,872
2023-04-12T02:27:14.072Z,857
2023-04-12T02:32:44.706Z,849
2023-04-12T02:38:15.116Z,850
2023-04-12T02:43:45.594Z,868
2023-04-12T02:49:16.187Z,901
2023-04-12T02:54:46.671Z,864
2023-04-12T03:00:17.378Z,831
2023-04-12T03:05:47.817Z,818
2023-04-12T03:11:18.301Z,808
2023-04-12T03:16:48.901Z,773
2023-04-12T03:22:19.383Z,790
2023-04-12T03:27:49.860Z,785
2023-04-12T03:33:19.342Z,762
2023-04-12T03:39:55.922Z,753
2023-04-12T03:45:26.511Z,738
2023-04-12T03:50:56.997Z,731
2023-04-12T03:56:27.469Z,726
2023-04-12T04:01:57.089Z,707
2023-04-12T04:07:27.570Z,699
2023-04-12T04:12:58.054Z,690
2023-04-12T04:18:27.515Z,682
2023-04-12T04:23:58.309Z,670
2023-04-12T04:29:28.482Z,660
2023-04-12T04:34:59.077Z,658
2023-04-12T04:40:29.567Z,653
2023-04-12T04:46:00.213Z,644
2023-04-12T04:51:30.604Z,644
2023-04-12T04:57:01.139Z,632
2023-04-12T05:02:30.793Z,636
2023-04-12T05:08:01.175Z,634
2023-04-12T05:13:31.635Z,630
2023-04-12T05:19:02.336Z,629
2023-04-12T05:24:32.840Z,627
2023-04-12T05:30:03.308Z,623
2023-04-12T05:35:33.979Z,619
2023-04-12T05:41:04.369Z,621
2023-04-12T05:46:35.012Z,613
2023-04-12T05:52:05.436Z,610
2023-04-12T05:57:35.913Z,611
2023-04-12T06:03:05.698Z,596
2023-04-12T06:08:36.712Z,595
2023-04-12T06:14:06.554Z,587
2023-04-12T06:16:17.761Z,586
2023-04-12T06:21:48.195Z,581
2023-04-12T06:27:18.674Z,584
2023-04-12T06:32:48.204Z,581
2023-04-12T06:38:18.664Z,580
2023-04-12T06:43:49.130Z,579
2023-04-12T06:49:19.691Z,576
2023-04-12T06:54:50.150Z,579
2023-04-12T07:00:20.812Z,578
2023-04-12T07:05:51.219Z,579
2023-04-12T07:11:22.265Z,573
2023-04-12T07:16:51.291Z,567
2023-04-12T07:22:21.732Z,565
2023-04-12T07:27:52.193Z,561
2023-04-12T07:33:22.976Z,554
2023-04-12T07:38:53.342Z,559
2023-04-12T07:49:54.318Z,556
2023-04-12T07:55:24.956Z,554
2023-04-12T08:00:54.826Z,550
2023-04-12T08:07:31.281Z,562
2023-04-12T08:13:01.762Z,554
2023-04-12T08:18:32.635Z,553
2023-04-12T08:24:03.069Z,548
2023-04-12T08:29:32.569Z,551
2023-04-12T08:35:03.123Z,549
2023-04-12T08:40:33.657Z,548
2023-04-12T08:46:03.129Z,552
2023-04-12T08:51:30.732Z,549
2023-04-12T08:56:59.504Z,543
2023-04-12T09:02:30.181Z,544
2023-04-12T09:08:00.498Z,547
2023-04-12T09:13:31.078Z,544
2023-04-12T09:19:00.578Z,546
2023-04-12T09:24:31.193Z,540
2023-04-12T09:30:01.665Z,540
2023-04-12T09:35:32.178Z,540
2023-04-12T09:41:01.650Z,543
2023-04-12T09:52:02.021Z,537
2023-04-12T09:57:32.458Z,539
2023-04-12T10:03:03.521Z,535
2023-04-12T10:08:33.779Z,540
2023-04-12T10:14:04.540Z,539
2023-04-12T10:19:34.993Z,544
2023-04-12T10:25:05.471Z,541
2023-04-12T10:30:36.111Z,538
2023-04-12T10:36:06.605Z,540
2023-04-12T10:41:37.055Z,536
2023-04-12T10:47:06.585Z,531
2023-04-12T10:52:37.013Z,525
2023-04-12T10:58:07.601Z,522
2023-04-12T11:03:38.248Z,519
2023-04-12T11:09:08.591Z,517
2023-04-12T11:14:38.253Z,515
2023-04-12T11:20:08.718Z,520
2023-04-12T11:25:39.281Z,517
2023-04-12T11:31:09.763Z,509
2023-04-12T11:36:40.457Z,517
2023-04-12T11:42:10.936Z,522
2023-04-12T11:47:40.626Z,532
2023-04-12T11:53:10.318Z,533
2023-04-12T11:58:40.946Z,544
2023-04-12T12:04:11.526Z,565
2023-04-12T12:09:41.987Z,560
2023-04-12T12:15:11.488Z,566
2023-04-12T12:20:42.481Z,568
2023-04-12T12:26:18.978Z,575
2023-04-12T12:31:43.596Z,585
2023-04-12T12:37:13.034Z,583
2023-04-12T12:42:42.526Z,588
2023-04-12T12:48:12.383Z,591
2023-04-12T12:54:48.845Z,594
2023-04-12T13:00:19.317Z,591
2023-04-12T13:05:48.819Z,599
2023-04-12T13:11:19.409Z,601
2023-04-12T13:16:49.347Z,601
2023-04-12T13:22:19.520Z,604
2023-04-12T13:27:50.257Z,603
2023-04-12T13:33:22.189Z,606
2023-04-12T13:38:51.468Z,603
2023-04-12T13:44:21.939Z,602
2023-04-12T13:49:52.418Z,613
2023-04-12T13:55:21.981Z,608
2023-04-12T14:00:52.756Z,612
2023-04-12T14:06:23.390Z,610
2023-04-12T14:11:53.866Z,610
2023-04-12T14:17:24.502Z,610
2023-04-12T14:22:53.824Z,613
2023-04-12T14:28:23.707Z,618
2023-04-12T14:33:54.194Z,613
2023-04-12T14:39:24.685Z,612
2023-04-12T14:44:55.247Z,615
2023-04-12T14:50:24.773Z,620
2023-04-12T14:55:55.380Z,619
2023-04-12T15:01:26.163Z,615
2023-04-12T15:06:55.360Z,608
2023-04-12T15:12:25.843Z,613
2023-04-12T15:17:56.630Z,613
2023-04-12T15:23:27.050Z,615
2023-04-12T15:28:57.538Z,611
2023-04-12T15:34:28.131Z,609
2023-04-12T15:39:58.679Z,612
2023-04-12T15:45:29.191Z,614
2023-04-12T15:50:59.727Z,609
2023-04-12T15:56:30.164Z,616
2023-04-12T16:02:00.836Z,611
2023-04-12T16:07:31.231Z,609
2023-04-12T16:13:01.705Z,611
2023-04-12T16:18:32.331Z,612
2023-04-12T16:24:02.787Z,612
2023-04-12T16:29:33.249Z,619
2023-04-12T16:35:03.890Z,616
2023-04-12T16:40:34.339Z,619
2023-04-12T16:46:04.952Z,614
2023-04-12T16:51:36.771Z,619
2023-04-12T16:57:06.012Z,614
2023-04-12T17:02:36.670Z,612
2023-04-12T17:08:05.959Z,613
2023-04-12T17:13:36.435Z,613
2023-04-12T17:19:09.221Z,616
2023-04-12T17:24:37.551Z,615
2023-04-12T17:30:08.110Z,615
2023-04-12T17:35:38.728Z,610
2023-04-12T17:41:09.250Z,607
2023-04-12T17:46:39.669Z,606
2023-04-12T17:52:10.233Z,609
2023-04-12T17:57:40.758Z,609
2023-04-12T18:03:11.461Z,611
2023-04-12T18:08:41.840Z,612
2023-04-12T18:14:12.321Z,608
2023-04-12T18:19:42.815Z,609
2023-04-12T18:25:12.408Z,616
2023-04-12T18:36:13.347Z,613
2023-04-12T18:41:42.818Z,610
2023-04-12T18:47:13.313Z,622
2023-04-12T18:52:44.068Z,651
2023-04-12T18:58:14.564Z,672
2023-04-12T19:03:45.070Z,689
2023-04-12T19:09:15.593Z,699
2023-04-12T19:14:46.071Z,703
2023-04-12T19:20:16.568Z,704
2023-04-12T19:25:46.036Z,705
2023-04-12T19:31:16.532Z,716
2023-04-12T19:36:47.121Z,722
2023-04-12T19:42:17.585Z,731
2023-04-12T19:47:48.201Z,726
2023-04-12T19:53:17.562Z,728
2023-04-12T19:59:54.120Z,737
2023-04-12T20:05:24.711Z,751
2023-04-12T20:10:55.191Z,762
2023-04-12T20:16:25.705Z,773
2023-04-12T20:21:56.250Z,776
2023-04-12T20:27:26.733Z,776
2023-04-12T20:32:57.260Z,776
2023-04-12T20:38:27.819Z,811
2023-04-12T20:43:58.298Z,836
2023-04-12T20:49:28.890Z,797
2023-04-12T20:54:59.460Z,792
2023-04-12T21:00:29.953Z,785
2023-04-12T21:07:06.617Z,800
2023-04-12T21:12:37.089Z,806
2023-04-12T21:18:07.575Z,810
2023-04-12T21:23:38.178Z,805
2023-04-12T21:29:08.634Z,794
2023-04-12T21:34:39.301Z,791
2023-04-12T21:40:10.066Z,778
2023-04-12T21:45:40.289Z,777
2023-04-12T21:51:09.794Z,762
2023-04-12T21:56:40.245Z,778
2023-04-12T22:02:10.887Z,786
2023-04-12T22:07:41.714Z,797
2023-04-12T22:13:11.825Z,810
2023-04-12T22:18:41.302Z,808
2023-04-12T22:24:11.788Z,809
2023-04-12T22:29:42.259Z,817
2023-04-12T22:35:12.860Z,815
2023-04-12T22:40:43.440Z,819
2023-04-12T22:46:14.056Z,946
2023-04-12T22:51:44.501Z,1003
2023-04-12T22:57:14.962Z,1041
2023-04-12T23:02:45.664Z,1048
2023-04-12T23:08:16.007Z,1058
2023-04-12T23:13:46.474Z,1082
2023-04-12T23:19:17.082Z,1094
2023-04-12T23:24:47.564Z,1104
2023-04-12T23:30:18.055Z,1116
2023-04-12T23:36:54.746Z,1122
2023-04-12T23:42:25.357Z,1126
2023-04-12T23:47:54.796Z,1132
2023-04-12T23:53:25.210Z,1120
2023-04-12T23:58:55.696Z,1121
